sensor_id;sensor_type;location;lat;lon;timestamp;P1;durP1;ratioP1;P2;durP2;ratioP2
16820;SDS011;8527;49.740;6.604;2024-02-26T00:03:02;1.65;;;1.30;;
16820;SDS011;8527;49.740;6.604;2024-02-26T00:08:04;1.05;;;0.75;;
16820;SDS011;8527;49.740;6.604;2024-02-26T00:13:05;3.00;;;1.27;;
16820;SDS011;8527;49.740;6.604;2024-02-26T00:18:04;1.77;;;0.82;;
16820;SDS011;8527;49.740;6.604;2024-02-26T00:23:06;1.35;;;0.57;;
16820;SDS011;8527;49.740;6.604;2024-02-26T00:28:08;2.28;;;0.60;;
16820;SDS011;8527;49.740;6.604;2024-02-26T00:33:08;0.77;;;0.68;;
16820;SDS011;8527;49.740;6.604;2024-02-26T00:38:13;3.08;;;0.85;;
16820;SDS011;8527;49.740;6.604;2024-02-26T00:43:15;0.52;;;0.43;;
16820;SDS011;8527;49.740;6.604;2024-02-26T00:48:14;0.55;;;0.55;;
16820;SDS011;8527;49.740;6.604;2024-02-26T00:53:15;0.70;;;0.70;;
16820;SDS011;8527;49.740;6.604;2024-02-26T00:58:16;0.57;;;0.47;;
16820;SDS011;8527;49.740;6.604;2024-02-26T01:03:15;0.63;;;0.32;;
16820;SDS011;8527;49.740;6.604;2024-02-26T01:08:20;0.90;;;0.40;;
16820;SDS011;8527;49.740;6.604;2024-02-26T01:13:19;0.63;;;0.60;;
16820;SDS011;8527;49.740;6.604;2024-02-26T01:18:21;0.73;;;0.60;;
16820;SDS011;8527;49.740;6.604;2024-02-26T01:23:22;3.50;;;0.50;;
16820;SDS011;8527;49.740;6.604;2024-02-26T01:28:23;0.68;;;0.57;;
16820;SDS011;8527;49.740;6.604;2024-02-26T01:33:26;0.50;;;0.50;;
16820;SDS011;8527;49.740;6.604;2024-02-26T01:38:27;0.65;;;0.65;;
16820;SDS011;8527;49.740;6.604;2024-02-26T01:43:26;0.60;;;0.40;;
16820;SDS011;8527;49.740;6.604;2024-02-26T01:48:24;0.47;;;0.47;;
16820;SDS011;8527;49.740;6.604;2024-02-26T01:53:23;1.17;;;0.52;;
16820;SDS011;8527;49.740;6.604;2024-02-26T01:58:24;0.77;;;0.40;;
16820;SDS011;8527;49.740;6.604;2024-02-26T02:03:23;0.75;;;0.47;;
16820;SDS011;8527;49.740;6.604;2024-02-26T02:08:25;1.85;;;0.55;;
16820;SDS011;8527;49.740;6.604;2024-02-26T02:13:33;1.00;;;0.90;;
16820;SDS011;8527;49.740;6.604;2024-02-26T02:18:37;1.67;;;0.40;;
16820;SDS011;8527;49.740;6.604;2024-02-26T02:23:41;1.27;;;0.40;;
16820;SDS011;8527;49.740;6.604;2024-02-26T02:28:41;0.60;;;0.40;;
16820;SDS011;8527;49.740;6.604;2024-02-26T02:33:44;1.65;;;0.73;;
16820;SDS011;8527;49.740;6.604;2024-02-26T02:38:51;0.75;;;0.63;;
16820;SDS011;8527;49.740;6.604;2024-02-26T02:43:52;0.73;;;0.50;;
16820;SDS011;8527;49.740;6.604;2024-02-26T02:48:50;0.52;;;0.52;;
16820;SDS011;8527;49.740;6.604;2024-02-26T02:53:53;1.63;;;0.47;;
16820;SDS011;8527;49.740;6.604;2024-02-26T02:58:52;0.55;;;0.40;;
16820;SDS011;8527;49.740;6.604;2024-02-26T03:03:50;0.30;;;0.30;;
16820;SDS011;8527;49.740;6.604;2024-02-26T03:08:51;0.40;;;0.40;;
16820;SDS011;8527;49.740;6.604;2024-02-26T03:13:52;0.47;;;0.47;;
16820;SDS011;8527;49.740;6.604;2024-02-26T03:18:51;0.22;;;0.22;;
16820;SDS011;8527;49.740;6.604;2024-02-26T03:23:50;0.65;;;0.40;;
16820;SDS011;8527;49.740;6.604;2024-02-26T03:28:51;1.25;;;0.50;;
16820;SDS011;8527;49.740;6.604;2024-02-26T03:33:49;0.40;;;0.40;;
16820;SDS011;8527;49.740;6.604;2024-02-26T03:38:51;0.50;;;0.50;;
16820;SDS011;8527;49.740;6.604;2024-02-26T03:43:55;0.55;;;0.50;;
16820;SDS011;8527;49.740;6.604;2024-02-26T03:48:56;2.00;;;0.65;;
16820;SDS011;8527;49.740;6.604;2024-02-26T03:53:54;0.73;;;0.65;;
16820;SDS011;8527;49.740;6.604;2024-02-26T03:58:58;1.05;;;0.40;;
16820;SDS011;8527;49.740;6.604;2024-02-26T04:03:57;0.40;;;0.30;;
16820;SDS011;8527;49.740;6.604;2024-02-26T04:08:56;0.65;;;0.52;;
16820;SDS011;8527;49.740;6.604;2024-02-26T04:14:03;0.32;;;0.32;;
16820;SDS011;8527;49.740;6.604;2024-02-26T04:19:03;0.95;;;0.50;;
16820;SDS011;8527;49.740;6.604;2024-02-26T04:24:02;6.43;;;2.08;;
16820;SDS011;8527;49.740;6.604;2024-02-26T04:29:03;1.73;;;0.65;;
16820;SDS011;8527;49.740;6.604;2024-02-26T04:34:01;0.30;;;0.30;;
16820;SDS011;8527;49.740;6.604;2024-02-26T04:39:05;0.60;;;0.50;;
16820;SDS011;8527;49.740;6.604;2024-02-26T04:44:07;0.90;;;0.57;;
16820;SDS011;8527;49.740;6.604;2024-02-26T04:49:13;3.70;;;0.45;;
16820;SDS011;8527;49.740;6.604;2024-02-26T04:54:12;0.55;;;0.50;;
16820;SDS011;8527;49.740;6.604;2024-02-26T04:59:19;0.43;;;0.38;;
16820;SDS011;8527;49.740;6.604;2024-02-26T05:04:18;0.57;;;0.57;;
16820;SDS011;8527;49.740;6.604;2024-02-26T05:09:29;0.50;;;0.40;;
16820;SDS011;8527;49.740;6.604;2024-02-26T05:14:30;0.55;;;0.40;;
16820;SDS011;8527;49.740;6.604;2024-02-26T05:19:31;0.30;;;0.30;;
16820;SDS011;8527;49.740;6.604;2024-02-26T05:24:34;2.72;;;0.55;;
16820;SDS011;8527;49.740;6.604;2024-02-26T05:29:40;0.75;;;0.60;;
16820;SDS011;8527;49.740;6.604;2024-02-26T05:34:41;1.20;;;0.40;;
16820;SDS011;8527;49.740;6.604;2024-02-26T05:39:52;0.20;;;0.20;;
16820;SDS011;8527;49.740;6.604;2024-02-26T05:44:56;0.82;;;0.30;;
16820;SDS011;8527;49.740;6.604;2024-02-26T05:50:00;0.30;;;0.30;;
16820;SDS011;8527;49.740;6.604;2024-02-26T05:55:01;1.58;;;0.75;;
16820;SDS011;8527;49.740;6.604;2024-02-26T06:00:05;0.35;;;0.30;;
16820;SDS011;8527;49.740;6.604;2024-02-26T06:05:05;2.00;;;0.43;;
16820;SDS011;8527;49.740;6.604;2024-02-26T06:10:08;0.63;;;0.50;;
16820;SDS011;8527;49.740;6.604;2024-02-26T06:15:11;4.97;;;2.67;;
16820;SDS011;8527;49.740;6.604;2024-02-26T06:20:10;3.40;;;3.08;;
16820;SDS011;8527;49.740;6.604;2024-02-26T06:25:12;2.63;;;2.35;;
16820;SDS011;8527;49.740;6.604;2024-02-26T06:30:13;1.15;;;1.05;;
16820;SDS011;8527;49.740;6.604;2024-02-26T06:35:12;2.20;;;1.17;;
16820;SDS011;8527;49.740;6.604;2024-02-26T06:40:10;1.00;;;0.70;;
16820;SDS011;8527;49.740;6.604;2024-02-26T06:45:09;3.30;;;1.00;;
16820;SDS011;8527;49.740;6.604;2024-02-26T06:50:11;0.93;;;0.57;;
16820;SDS011;8527;49.740;6.604;2024-02-26T06:55:10;0.93;;;0.90;;
16820;SDS011;8527;49.740;6.604;2024-02-26T07:00:12;0.50;;;0.50;;
16820;SDS011;8527;49.740;6.604;2024-02-26T07:05:15;0.52;;;0.52;;
16820;SDS011;8527;49.740;6.604;2024-02-26T07:10:16;1.33;;;0.60;;
16820;SDS011;8527;49.740;6.604;2024-02-26T07:15:17;1.73;;;0.60;;
16820;SDS011;8527;49.740;6.604;2024-02-26T07:20:19;4.35;;;2.95;;
16820;SDS011;8527;49.740;6.604;2024-02-26T07:25:20;1.30;;;1.00;;
16820;SDS011;8527;49.740;6.604;2024-02-26T07:30:19;1.70;;;0.80;;
16820;SDS011;8527;49.740;6.604;2024-02-26T07:35:20;0.70;;;0.68;;
16820;SDS011;8527;49.740;6.604;2024-02-26T07:40:19;2.58;;;1.58;;
16820;SDS011;8527;49.740;6.604;2024-02-26T07:45:17;0.95;;;0.85;;
16820;SDS011;8527;49.740;6.604;2024-02-26T07:50:16;3.47;;;2.22;;
16820;SDS011;8527;49.740;6.604;2024-02-26T07:55:17;4.55;;;2.80;;
16820;SDS011;8527;49.740;6.604;2024-02-26T08:00:19;4.88;;;1.80;;
16820;SDS011;8527;49.740;6.604;2024-02-26T08:05:20;1.10;;;1.00;;
16820;SDS011;8527;49.740;6.604;2024-02-26T08:10:24;1.02;;;1.00;;
16820;SDS011;8527;49.740;6.604;2024-02-26T08:15:22;0.75;;;0.73;;
16820;SDS011;8527;49.740;6.604;2024-02-26T08:20:21;1.77;;;1.15;;
16820;SDS011;8527;49.740;6.604;2024-02-26T08:25:19;1.33;;;0.85;;
16820;SDS011;8527;49.740;6.604;2024-02-26T08:30:20;1.65;;;1.02;;
16820;SDS011;8527;49.740;6.604;2024-02-26T08:35:21;3.28;;;2.00;;
16820;SDS011;8527;49.740;6.604;2024-02-26T08:40:19;2.58;;;2.00;;
16820;SDS011;8527;49.740;6.604;2024-02-26T08:45:21;1.70;;;1.33;;
16820;SDS011;8527;49.740;6.604;2024-02-26T08:50:19;1.33;;;0.80;;
16820;SDS011;8527;49.740;6.604;2024-02-26T08:55:21;3.70;;;1.98;;
16820;SDS011;8527;49.740;6.604;2024-02-26T09:00:32;3.40;;;1.33;;
16820;SDS011;8527;49.740;6.604;2024-02-26T09:05:34;1.02;;;0.95;;
16820;SDS011;8527;49.740;6.604;2024-02-26T09:10:38;1.13;;;0.95;;
16820;SDS011;8527;49.740;6.604;2024-02-26T09:15:43;1.33;;;1.15;;
16820;SDS011;8527;49.740;6.604;2024-02-26T09:20:42;5.30;;;1.10;;
16820;SDS011;8527;49.740;6.604;2024-02-26T09:25:40;3.30;;;0.98;;
16820;SDS011;8527;49.740;6.604;2024-02-26T09:30:39;0.98;;;0.93;;
16820;SDS011;8527;49.740;6.604;2024-02-26T09:35:41;1.90;;;0.90;;
16820;SDS011;8527;49.740;6.604;2024-02-26T09:40:39;1.80;;;1.02;;
16820;SDS011;8527;49.740;6.604;2024-02-26T09:45:41;4.05;;;1.33;;
16820;SDS011;8527;49.740;6.604;2024-02-26T09:50:44;2.20;;;1.10;;
16820;SDS011;8527;49.740;6.604;2024-02-26T09:55:44;1.05;;;1.05;;
16820;SDS011;8527;49.740;6.604;2024-02-26T10:00:43;2.60;;;1.50;;
16820;SDS011;8527;49.740;6.604;2024-02-26T10:05:48;2.13;;;1.60;;
16820;SDS011;8527;49.740;6.604;2024-02-26T10:10:50;2.45;;;1.67;;
16820;SDS011;8527;49.740;6.604;2024-02-26T10:15:52;1.83;;;1.50;;
16820;SDS011;8527;49.740;6.604;2024-02-26T10:21:03;2.50;;;1.50;;
16820;SDS011;8527;49.740;6.604;2024-02-26T10:26:03;2.38;;;1.75;;
16820;SDS011;8527;49.740;6.604;2024-02-26T10:31:15;2.40;;;1.70;;
16820;SDS011;8527;49.740;6.604;2024-02-26T10:36:19;2.45;;;1.80;;
16820;SDS011;8527;49.740;6.604;2024-02-26T10:41:19;2.10;;;1.92;;
16820;SDS011;8527;49.740;6.604;2024-02-26T10:46:20;2.47;;;2.10;;
16820;SDS011;8527;49.740;6.604;2024-02-26T10:51:24;2.28;;;1.80;;
16820;SDS011;8527;49.740;6.604;2024-02-26T10:56:24;1.90;;;1.80;;
16820;SDS011;8527;49.740;6.604;2024-02-26T11:01:25;3.63;;;1.80;;
16820;SDS011;8527;49.740;6.604;2024-02-26T11:06:32;3.83;;;1.92;;
16820;SDS011;8527;49.740;6.604;2024-02-26T11:11:32;5.50;;;2.22;;
16820;SDS011;8527;49.740;6.604;2024-02-26T11:16:31;1.88;;;1.73;;
16820;SDS011;8527;49.740;6.604;2024-02-26T11:21:35;1.67;;;1.55;;
16820;SDS011;8527;49.740;6.604;2024-02-26T11:26:38;2.00;;;1.70;;
16820;SDS011;8527;49.740;6.604;2024-02-26T11:31:43;5.28;;;1.52;;
16820;SDS011;8527;49.740;6.604;2024-02-26T11:36:48;2.45;;;1.60;;
16820;SDS011;8527;49.740;6.604;2024-02-26T11:41:49;2.28;;;1.50;;
16820;SDS011;8527;49.740;6.604;2024-02-26T11:46:51;2.53;;;1.20;;
16820;SDS011;8527;49.740;6.604;2024-02-26T11:51:53;2.13;;;1.58;;
16820;SDS011;8527;49.740;6.604;2024-02-26T11:56:57;3.03;;;1.50;;
16820;SDS011;8527;49.740;6.604;2024-02-26T12:01:55;3.45;;;1.20;;
16820;SDS011;8527;49.740;6.604;2024-02-26T12:06:58;1.50;;;1.40;;
16820;SDS011;8527;49.740;6.604;2024-02-26T12:12:02;3.65;;;1.33;;
16820;SDS011;8527;49.740;6.604;2024-02-26T12:17:01;1.63;;;1.15;;
16820;SDS011;8527;49.740;6.604;2024-02-26T12:22:06;1.50;;;1.40;;
16820;SDS011;8527;49.740;6.604;2024-02-26T12:27:11;2.72;;;1.50;;
16820;SDS011;8527;49.740;6.604;2024-02-26T12:32:10;2.97;;;1.80;;
16820;SDS011;8527;49.740;6.604;2024-02-26T12:37:13;1.17;;;1.08;;
16820;SDS011;8527;49.740;6.604;2024-02-26T12:42:14;4.22;;;1.30;;
16820;SDS011;8527;49.740;6.604;2024-02-26T12:47:12;1.98;;;1.20;;
16820;SDS011;8527;49.740;6.604;2024-02-26T12:52:22;2.35;;;1.20;;
16820;SDS011;8527;49.740;6.604;2024-02-26T12:57:21;2.22;;;1.60;;
16820;SDS011;8527;49.740;6.604;2024-02-26T13:02:25;2.95;;;1.50;;
16820;SDS011;8527;49.740;6.604;2024-02-26T13:07:27;2.67;;;1.63;;
16820;SDS011;8527;49.740;6.604;2024-02-26T13:12:26;4.55;;;1.55;;
16820;SDS011;8527;49.740;6.604;2024-02-26T13:17:25;1.20;;;1.10;;
16820;SDS011;8527;49.740;6.604;2024-02-26T13:22:23;1.98;;;1.33;;
16820;SDS011;8527;49.740;6.604;2024-02-26T13:27:28;0.80;;;0.80;;
16820;SDS011;8527;49.740;6.604;2024-02-26T13:32:26;3.22;;;1.35;;
16820;SDS011;8527;49.740;6.604;2024-02-26T13:37:29;3.03;;;1.30;;
16820;SDS011;8527;49.740;6.604;2024-02-26T13:42:27;2.42;;;1.05;;
16820;SDS011;8527;49.740;6.604;2024-02-26T13:47:25;2.50;;;1.02;;
16820;SDS011;8527;49.740;6.604;2024-02-26T13:52:24;2.60;;;0.88;;
16820;SDS011;8527;49.740;6.604;2024-02-26T13:57:26;1.42;;;1.05;;
16820;SDS011;8527;49.740;6.604;2024-02-26T14:02:25;2.08;;;1.17;;
16820;SDS011;8527;49.740;6.604;2024-02-26T14:07:23;0.80;;;0.80;;
16820;SDS011;8527;49.740;6.604;2024-02-26T14:12:21;2.28;;;1.40;;
16820;SDS011;8527;49.740;6.604;2024-02-26T14:17:22;3.67;;;1.27;;
16820;SDS011;8527;49.740;6.604;2024-02-26T14:22:21;0.95;;;0.70;;
16820;SDS011;8527;49.740;6.604;2024-02-26T14:27:25;2.83;;;0.88;;
16820;SDS011;8527;49.740;6.604;2024-02-26T14:32:26;2.35;;;0.80;;
16820;SDS011;8527;49.740;6.604;2024-02-26T14:37:27;1.40;;;0.90;;
16820;SDS011;8527;49.740;6.604;2024-02-26T14:42:26;2.15;;;1.08;;
16820;SDS011;8527;49.740;6.604;2024-02-26T14:47:27;1.10;;;1.00;;
16820;SDS011;8527;49.740;6.604;2024-02-26T14:52:25;1.48;;;1.05;;
16820;SDS011;8527;49.740;6.604;2024-02-26T14:57:24;3.25;;;1.40;;
16820;SDS011;8527;49.740;6.604;2024-02-26T15:02:23;1.55;;;0.80;;
16820;SDS011;8527;49.740;6.604;2024-02-26T15:07:24;1.27;;;0.82;;
16820;SDS011;8527;49.740;6.604;2024-02-26T15:12:24;2.35;;;1.02;;
16820;SDS011;8527;49.740;6.604;2024-02-26T15:17:25;2.05;;;1.10;;
16820;SDS011;8527;49.740;6.604;2024-02-26T15:22:30;0.90;;;0.90;;
16820;SDS011;8527;49.740;6.604;2024-02-26T15:27:31;1.70;;;1.10;;
16820;SDS011;8527;49.740;6.604;2024-02-26T15:32:32;1.25;;;0.90;;
16820;SDS011;8527;49.740;6.604;2024-02-26T15:37:40;3.92;;;1.83;;
16820;SDS011;8527;49.740;6.604;2024-02-26T15:42:39;6.15;;;1.50;;
16820;SDS011;8527;49.740;6.604;2024-02-26T15:47:39;1.50;;;1.20;;
16820;SDS011;8527;49.740;6.604;2024-02-26T15:52:45;1.50;;;1.40;;
16820;SDS011;8527;49.740;6.604;2024-02-26T15:57:47;1.98;;;1.80;;
16820;SDS011;8527;49.740;6.604;2024-02-26T16:02:47;1.42;;;1.33;;
16820;SDS011;8527;49.740;6.604;2024-02-26T16:07:50;2.15;;;1.95;;
16820;SDS011;8527;49.740;6.604;2024-02-26T16:12:53;2.92;;;1.95;;
16820;SDS011;8527;49.740;6.604;2024-02-26T16:17:57;3.15;;;1.70;;
16820;SDS011;8527;49.740;6.604;2024-02-26T16:23:01;2.15;;;1.55;;
16820;SDS011;8527;49.740;6.604;2024-02-26T16:28:03;2.72;;;1.60;;
16820;SDS011;8527;49.740;6.604;2024-02-26T16:33:02;2.97;;;1.90;;
16820;SDS011;8527;49.740;6.604;2024-02-26T16:38:03;3.00;;;1.90;;
16820;SDS011;8527;49.740;6.604;2024-02-26T16:43:05;3.67;;;2.13;;
16820;SDS011;8527;49.740;6.604;2024-02-26T16:48:07;2.75;;;1.90;;
16820;SDS011;8527;49.740;6.604;2024-02-26T16:53:08;2.63;;;2.10;;
16820;SDS011;8527;49.740;6.604;2024-02-26T16:58:06;1.98;;;1.60;;
16820;SDS011;8527;49.740;6.604;2024-02-26T17:03:05;2.55;;;2.30;;
16820;SDS011;8527;49.740;6.604;2024-02-26T17:08:04;6.22;;;2.70;;
16820;SDS011;8527;49.740;6.604;2024-02-26T17:13:08;6.68;;;2.38;;
16820;SDS011;8527;49.740;6.604;2024-02-26T17:18:24;4.20;;;2.25;;
16820;SDS011;8527;49.740;6.604;2024-02-26T17:23:25;3.55;;;2.10;;
16820;SDS011;8527;49.740;6.604;2024-02-26T17:28:30;3.60;;;3.20;;
16820;SDS011;8527;49.740;6.604;2024-02-26T17:33:31;2.28;;;2.08;;
16820;SDS011;8527;49.740;6.604;2024-02-26T17:38:35;3.97;;;2.80;;
16820;SDS011;8527;49.740;6.604;2024-02-26T17:43:36;6.63;;;3.20;;
16820;SDS011;8527;49.740;6.604;2024-02-26T17:48:36;5.30;;;3.10;;
16820;SDS011;8527;49.740;6.604;2024-02-26T17:53:37;4.05;;;3.03;;
16820;SDS011;8527;49.740;6.604;2024-02-26T17:58:39;2.80;;;2.58;;
16820;SDS011;8527;49.740;6.604;2024-02-26T18:03:38;4.38;;;3.15;;
16820;SDS011;8527;49.740;6.604;2024-02-26T18:08:37;6.15;;;3.15;;
16820;SDS011;8527;49.740;6.604;2024-02-26T18:13:36;7.65;;;3.70;;
16820;SDS011;8527;49.740;6.604;2024-02-26T18:18:39;4.13;;;3.40;;
16820;SDS011;8527;49.740;6.604;2024-02-26T18:23:41;5.00;;;3.45;;
16820;SDS011;8527;49.740;6.604;2024-02-26T18:28:48;4.07;;;3.55;;
16820;SDS011;8527;49.740;6.604;2024-02-26T18:33:49;6.05;;;3.90;;
16820;SDS011;8527;49.740;6.604;2024-02-26T18:38:51;6.22;;;3.97;;
16820;SDS011;8527;49.740;6.604;2024-02-26T18:43:53;5.72;;;4.60;;
16820;SDS011;8527;49.740;6.604;2024-02-26T18:48:57;5.30;;;4.50;;
16820;SDS011;8527;49.740;6.604;2024-02-26T18:53:57;5.72;;;4.13;;
16820;SDS011;8527;49.740;6.604;2024-02-26T18:58:58;6.32;;;4.65;;
16820;SDS011;8527;49.740;6.604;2024-02-26T19:04:00;7.45;;;4.28;;
16820;SDS011;8527;49.740;6.604;2024-02-26T19:08:58;6.00;;;3.40;;
16820;SDS011;8527;49.740;6.604;2024-02-26T19:14:05;6.03;;;3.97;;
16820;SDS011;8527;49.740;6.604;2024-02-26T19:19:04;6.68;;;4.10;;
16820;SDS011;8527;49.740;6.604;2024-02-26T19:24:03;5.72;;;4.80;;
16820;SDS011;8527;49.740;6.604;2024-02-26T19:29:08;5.60;;;3.88;;
16820;SDS011;8527;49.740;6.604;2024-02-26T19:34:07;6.38;;;4.30;;
16820;SDS011;8527;49.740;6.604;2024-02-26T19:39:06;5.78;;;3.75;;
16820;SDS011;8527;49.740;6.604;2024-02-26T19:44:11;7.68;;;4.63;;
16820;SDS011;8527;49.740;6.604;2024-02-26T19:49:10;7.30;;;4.53;;
16820;SDS011;8527;49.740;6.604;2024-02-26T19:54:13;5.80;;;4.28;;
16820;SDS011;8527;49.740;6.604;2024-02-26T19:59:18;9.38;;;4.57;;
16820;SDS011;8527;49.740;6.604;2024-02-26T20:04:18;8.32;;;4.60;;
16820;SDS011;8527;49.740;6.604;2024-02-26T20:09:19;5.60;;;4.30;;
16820;SDS011;8527;49.740;6.604;2024-02-26T20:14:24;6.45;;;4.32;;
16820;SDS011;8527;49.740;6.604;2024-02-26T20:19:22;9.43;;;5.85;;
16820;SDS011;8527;49.740;6.604;2024-02-26T20:24:26;7.28;;;4.90;;
16820;SDS011;8527;49.740;6.604;2024-02-26T20:29:28;6.30;;;4.47;;
16820;SDS011;8527;49.740;6.604;2024-02-26T20:34:28;8.10;;;5.22;;
16820;SDS011;8527;49.740;6.604;2024-02-26T20:39:26;8.02;;;5.18;;
16820;SDS011;8527;49.740;6.604;2024-02-26T20:44:29;9.43;;;4.65;;
16820;SDS011;8527;49.740;6.604;2024-02-26T20:49:28;7.13;;;4.47;;
16820;SDS011;8527;49.740;6.604;2024-02-26T20:54:26;7.70;;;4.90;;
16820;SDS011;8527;49.740;6.604;2024-02-26T20:59:25;8.88;;;4.40;;
16820;SDS011;8527;49.740;6.604;2024-02-26T21:04:38;6.05;;;3.92;;
16820;SDS011;8527;49.740;6.604;2024-02-26T21:09:41;7.28;;;4.32;;
16820;SDS011;8527;49.740;6.604;2024-02-26T21:20:00;10.13;;;4.40;;
16820;SDS011;8527;49.740;6.604;2024-02-26T21:25:03;6.80;;;3.80;;
16820;SDS011;8527;49.740;6.604;2024-02-26T21:30:10;6.70;;;3.97;;
16820;SDS011;8527;49.740;6.604;2024-02-26T21:35:14;7.28;;;3.90;;
16820;SDS011;8527;49.740;6.604;2024-02-26T21:40:18;8.23;;;4.50;;
16820;SDS011;8527;49.740;6.604;2024-02-26T21:45:30;5.47;;;3.85;;
16820;SDS011;8527;49.740;6.604;2024-02-26T21:50:32;6.03;;;4.05;;
16820;SDS011;8527;49.740;6.604;2024-02-26T21:55:33;6.05;;;3.88;;
16820;SDS011;8527;49.740;6.604;2024-02-26T22:00:35;6.45;;;4.22;;
16820;SDS011;8527;49.740;6.604;2024-02-26T22:05:37;6.72;;;3.80;;
16820;SDS011;8527;49.740;6.604;2024-02-26T22:10:36;5.50;;;3.70;;
16820;SDS011;8527;49.740;6.604;2024-02-26T22:15:40;6.65;;;3.95;;
16820;SDS011;8527;49.740;6.604;2024-02-26T22:20:40;6.30;;;3.70;;
16820;SDS011;8527;49.740;6.604;2024-02-26T22:25:39;4.35;;;3.35;;
16820;SDS011;8527;49.740;6.604;2024-02-26T22:30:40;5.47;;;3.83;;
16820;SDS011;8527;49.740;6.604;2024-02-26T22:35:39;5.15;;;3.75;;
16820;SDS011;8527;49.740;6.604;2024-02-26T22:40:38;7.05;;;4.15;;
16820;SDS011;8527;49.740;6.604;2024-02-26T22:45:36;7.00;;;4.10;;
16820;SDS011;8527;49.740;6.604;2024-02-26T22:50:40;6.85;;;4.10;;
16820;SDS011;8527;49.740;6.604;2024-02-26T22:55:38;6.85;;;4.03;;
16820;SDS011;8527;49.740;6.604;2024-02-26T23:00:45;6.07;;;4.13;;
16820;SDS011;8527;49.740;6.604;2024-02-26T23:05:47;7.22;;;4.53;;
16820;SDS011;8527;49.740;6.604;2024-02-26T23:10:45;7.28;;;4.18;;
16820;SDS011;8527;49.740;6.604;2024-02-26T23:15:46;7.05;;;4.45;;
16820;SDS011;8527;49.740;6.604;2024-02-26T23:20:51;7.20;;;4.38;;
16820;SDS011;8527;49.740;6.604;2024-02-26T23:25:50;9.15;;;4.45;;
16820;SDS011;8527;49.740;6.604;2024-02-26T23:30:49;8.95;;;4.60;;
16820;SDS011;8527;49.740;6.604;2024-02-26T23:35:47;8.43;;;5.18;;
16820;SDS011;8527;49.740;6.604;2024-02-26T23:40:49;8.55;;;4.90;;
16820;SDS011;8527;49.740;6.604;2024-02-26T23:45:47;8.40;;;5.15;;
16820;SDS011;8527;49.740;6.604;2024-02-26T23:50:46;8.88;;;5.15;;
16820;SDS011;8527;49.740;6.604;2024-02-26T23:55:49;8.98;;;5.28;;
